Maysville, Missouri
Current Conditions -  °F | °C
As of 5:53 AM on Thursday 27 Nov 2014 (Local Time) from KSTJ Reporting Station
Overcast Overcast  
Wind Chill: -11°   Ceiling: 1600
Heat Index: -4°   Visibility: 10mi
Dew Point: -8°   Wind: 13mph
Humidity: 75%   Direction: 350°N
Pressure: 30.5"   Gusts: NA
Location:  39.89°N, 94.36°W
Report Text: KSTJ 271153Z AUTO 35011KT 10SM OVC016 M04/M08 A3050 RMK AO2 SLP340 T10441083 11028 21044 51004
Loading
Personal Weather Stations






























Interactive Weather Map New forecast layout! Learn more

10-Day Weather Forecast

Advertisements
Track Severe Weather on mobile